sensor_id;sensor_type;location;lat;lon;timestamp;pressure;altitude;pressure_sealevel;temperature;humidity
64889;BME280;51386;53.082;8.816;2022-09-03T00:00:14;101529.75;;;23.36;34.07
64889;BME280;51386;53.082;8.816;2022-09-03T00:02:46;101524.47;;;23.30;34.17
64889;BME280;51386;53.082;8.816;2022-09-03T00:05:23;101527.56;;;23.22;34.19
64889;BME280;51386;53.082;8.816;2022-09-03T00:08:01;101521.50;;;23.15;34.48
64889;BME280;51386;53.082;8.816;2022-09-03T00:10:42;101530.03;;;23.12;34.37
64889;BME280;51386;53.082;8.816;2022-09-03T00:13:22;101525.63;;;23.06;34.66
64889;BME280;51386;53.082;8.816;2022-09-03T00:15:54;101527.13;;;23.02;34.98
64889;BME280;51386;53.082;8.816;2022-09-03T00:18:26;101524.31;;;22.97;34.74
64889;BME280;51386;53.082;8.816;2022-09-03T00:21:01;101524.00;;;22.93;34.65
64889;BME280;51386;53.082;8.816;2022-09-03T00:23:39;101528.22;;;22.89;34.90
64889;BME280;51386;53.082;8.816;2022-09-03T00:26:19;101535.59;;;22.82;35.25
64889;BME280;51386;53.082;8.816;2022-09-03T00:28:57;101536.06;;;22.79;35.24
64889;BME280;51386;53.082;8.816;2022-09-03T00:31:31;101537.91;;;22.78;34.82
64889;BME280;51386;53.082;8.816;2022-09-03T00:34:05;101535.13;;;22.73;35.37
64889;BME280;51386;53.082;8.816;2022-09-03T00:36:40;101537.22;;;22.71;35.11
64889;BME280;51386;53.082;8.816;2022-09-03T00:39:11;101538.88;;;22.72;35.46
64889;BME280;51386;53.082;8.816;2022-09-03T00:41:54;101536.53;;;22.64;35.02
64889;BME280;51386;53.082;8.816;2022-09-03T00:44:47;101542.19;;;22.56;35.14
64889;BME280;51386;53.082;8.816;2022-09-03T00:47:29;101541.03;;;22.52;35.40
64889;BME280;51386;53.082;8.816;2022-09-03T00:50:08;101537.19;;;22.48;35.72
64889;BME280;51386;53.082;8.816;2022-09-03T00:52:59;101531.13;;;22.41;36.04
64889;BME280;51386;53.082;8.816;2022-09-03T00:55:41;101534.84;;;22.40;36.03
64889;BME280;51386;53.082;8.816;2022-09-03T00:58:39;101525.28;;;22.33;36.18
64889;BME280;51386;53.082;8.816;2022-09-03T01:01:19;101518.88;;;22.34;36.41
64889;BME280;51386;53.082;8.816;2022-09-03T01:03:57;101511.88;;;22.33;35.77
64889;BME280;51386;53.082;8.816;2022-09-03T01:06:36;101514.78;;;22.31;36.20
64889;BME280;51386;53.082;8.816;2022-09-03T01:09:28;101517.94;;;22.28;36.13
64889;BME280;51386;53.082;8.816;2022-09-03T01:12:05;101517.34;;;22.26;36.55
64889;BME280;51386;53.082;8.816;2022-09-03T01:14:49;101528.78;;;22.21;36.20
64889;BME280;51386;53.082;8.816;2022-09-03T01:17:31;101522.00;;;22.19;36.22
64889;BME280;51386;53.082;8.816;2022-09-03T01:20:18;101521.66;;;22.15;36.31
64889;BME280;51386;53.082;8.816;2022-09-03T01:26:25;101521.75;;;22.09;36.38
64889;BME280;51386;53.082;8.816;2022-09-03T01:29:09;101516.06;;;22.05;36.35
64889;BME280;51386;53.082;8.816;2022-09-03T01:31:51;101527.00;;;22.04;36.71
64889;BME280;51386;53.082;8.816;2022-09-03T01:34:41;101521.03;;;22.02;36.54
64889;BME280;51386;53.082;8.816;2022-09-03T01:37:21;101526.41;;;22.02;36.71
64889;BME280;51386;53.082;8.816;2022-09-03T01:40:02;101529.31;;;22.00;37.09
64889;BME280;51386;53.082;8.816;2022-09-03T01:42:43;101525.25;;;21.98;36.96
64889;BME280;51386;53.082;8.816;2022-09-03T01:45:41;101526.97;;;21.92;36.78
64889;BME280;51386;53.082;8.816;2022-09-03T01:48:43;101524.97;;;21.88;37.18
64889;BME280;51386;53.082;8.816;2022-09-03T01:51:20;101521.72;;;21.86;36.90
64889;BME280;51386;53.082;8.816;2022-09-03T01:54:24;101519.56;;;21.76;37.37
64889;BME280;51386;53.082;8.816;2022-09-03T01:57:25;101519.41;;;21.71;37.36
64889;BME280;51386;53.082;8.816;2022-09-03T02:00:08;101520.81;;;21.74;37.53
64889;BME280;51386;53.082;8.816;2022-09-03T02:02:41;101520.00;;;21.73;37.13
64889;BME280;51386;53.082;8.816;2022-09-03T02:05:13;101520.25;;;21.72;37.35
64889;BME280;51386;53.082;8.816;2022-09-03T02:07:45;101523.97;;;21.71;37.89
64889;BME280;51386;53.082;8.816;2022-09-03T02:10:16;101516.97;;;21.70;37.83
64889;BME280;51386;53.082;8.816;2022-09-03T02:12:52;101520.09;;;21.67;37.91
64889;BME280;51386;53.082;8.816;2022-09-03T02:15:23;101526.50;;;21.66;37.75
64889;BME280;51386;53.082;8.816;2022-09-03T02:17:56;101518.69;;;21.64;37.86
64889;BME280;51386;53.082;8.816;2022-09-03T02:20:28;101523.22;;;21.64;37.52
64889;BME280;51386;53.082;8.816;2022-09-03T02:22:58;101529.66;;;21.63;37.93
64889;BME280;51386;53.082;8.816;2022-09-03T02:25:32;101518.34;;;21.61;38.07
64889;BME280;51386;53.082;8.816;2022-09-03T02:28:05;101523.72;;;21.61;37.88
64889;BME280;51386;53.082;8.816;2022-09-03T02:30:44;101516.84;;;21.65;38.13
64889;BME280;51386;53.082;8.816;2022-09-03T02:33:14;101518.25;;;21.67;37.64
64889;BME280;51386;53.082;8.816;2022-09-03T02:35:42;101519.41;;;21.71;37.61
64889;BME280;51386;53.082;8.816;2022-09-03T02:38:12;101519.41;;;21.71;37.46
64889;BME280;51386;53.082;8.816;2022-09-03T02:40:40;101522.34;;;21.70;37.51
64889;BME280;51386;53.082;8.816;2022-09-03T02:43:14;101516.84;;;21.65;37.63
64889;BME280;51386;53.082;8.816;2022-09-03T02:45:47;101507.41;;;21.62;38.05
64889;BME280;51386;53.082;8.816;2022-09-03T02:48:22;101523.09;;;21.58;38.13
64889;BME280;51386;53.082;8.816;2022-09-03T02:50:50;101512.84;;;21.55;37.98
64889;BME280;51386;53.082;8.816;2022-09-03T02:53:18;101515.16;;;21.52;38.13
64889;BME280;51386;53.082;8.816;2022-09-03T02:55:46;101514.56;;;21.50;38.04
64889;BME280;51386;53.082;8.816;2022-09-03T02:58:14;101518.06;;;21.50;38.42
64889;BME280;51386;53.082;8.816;2022-09-03T03:00:41;101514.00;;;21.48;38.43
64889;BME280;51386;53.082;8.816;2022-09-03T03:03:09;101515.25;;;21.45;38.25
64889;BME280;51386;53.082;8.816;2022-09-03T03:05:45;101515.34;;;21.39;38.23
64889;BME280;51386;53.082;8.816;2022-09-03T03:08:15;101523.59;;;21.37;37.92
64889;BME280;51386;53.082;8.816;2022-09-03T03:10:48;101521.59;;;21.33;37.95
64889;BME280;51386;53.082;8.816;2022-09-03T03:13:15;101518.56;;;21.29;38.79
64889;BME280;51386;53.082;8.816;2022-09-03T03:15:43;101517.38;;;21.25;38.51
64889;BME280;51386;53.082;8.816;2022-09-03T03:18:11;101523.19;;;21.22;38.24
64889;BME280;51386;53.082;8.816;2022-09-03T03:20:41;101519.31;;;21.18;38.36
64889;BME280;51386;53.082;8.816;2022-09-03T03:23:09;101521.41;;;21.16;38.36
64889;BME280;51386;53.082;8.816;2022-09-03T03:25:38;101518.94;;;21.15;38.49
64889;BME280;51386;53.082;8.816;2022-09-03T03:28:06;101522.66;;;21.14;38.83
64889;BME280;51386;53.082;8.816;2022-09-03T03:30:37;101527.66;;;21.10;38.62
64889;BME280;51386;53.082;8.816;2022-09-03T03:33:06;101519.84;;;21.09;39.20
64889;BME280;51386;53.082;8.816;2022-09-03T03:35:35;101522.31;;;21.10;39.18
64889;BME280;51386;53.082;8.816;2022-09-03T03:38:03;101517.38;;;21.07;38.63
64889;BME280;51386;53.082;8.816;2022-09-03T03:40:31;101515.97;;;21.05;38.59
64889;BME280;51386;53.082;8.816;2022-09-03T03:42:59;101513.72;;;21.02;39.33
64889;BME280;51386;53.082;8.816;2022-09-03T03:45:26;101513.13;;;21.00;39.27
64889;BME280;51386;53.082;8.816;2022-09-03T03:47:56;101522.81;;;21.01;39.07
64889;BME280;51386;53.082;8.816;2022-09-03T03:50:24;101516.63;;;21.00;38.87
64889;BME280;51386;53.082;8.816;2022-09-03T03:52:58;101514.97;;;20.99;39.02
64889;BME280;51386;53.082;8.816;2022-09-03T03:55:27;101511.25;;;21.00;39.18
64889;BME280;51386;53.082;8.816;2022-09-03T03:57:58;101510.91;;;20.97;39.34
64889;BME280;51386;53.082;8.816;2022-09-03T04:00:26;101513.78;;;20.95;39.30
64889;BME280;51386;53.082;8.816;2022-09-03T04:02:53;101515.88;;;20.93;39.64
64889;BME280;51386;53.082;8.816;2022-09-03T04:05:20;101518.78;;;20.91;39.05
64889;BME280;51386;53.082;8.816;2022-09-03T04:07:50;101515.72;;;20.88;39.41
64889;BME280;51386;53.082;8.816;2022-09-03T04:10:17;101513.50;;;20.85;39.09
64889;BME280;51386;53.082;8.816;2022-09-03T04:12:46;101522.19;;;20.80;39.37
64889;BME280;51386;53.082;8.816;2022-09-03T04:15:13;101519.75;;;20.79;39.57
64889;BME280;51386;53.082;8.816;2022-09-03T04:17:41;101519.75;;;20.79;39.35
64889;BME280;51386;53.082;8.816;2022-09-03T04:20:10;101514.38;;;20.79;39.39
64889;BME280;51386;53.082;8.816;2022-09-03T04:22:37;101515.41;;;20.78;39.35
64889;BME280;51386;53.082;8.816;2022-09-03T04:25:05;101516.69;;;20.75;39.92
64889;BME280;51386;53.082;8.816;2022-09-03T04:27:33;101516.91;;;20.74;40.07
64889;BME280;51386;53.082;8.816;2022-09-03T04:30:02;101519.59;;;20.74;40.01
64889;BME280;51386;53.082;8.816;2022-09-03T04:32:30;101507.03;;;20.74;39.48
64889;BME280;51386;53.082;8.816;2022-09-03T04:35:19;101507.84;;;20.75;39.79
64889;BME280;51386;53.082;8.816;2022-09-03T04:37:47;101510.53;;;20.75;39.55
64889;BME280;51386;53.082;8.816;2022-09-03T04:40:15;101507.38;;;20.78;39.56
64889;BME280;51386;53.082;8.816;2022-09-03T04:42:42;101502.66;;;20.80;39.33
64889;BME280;51386;53.082;8.816;2022-09-03T04:45:11;101506.94;;;20.81;39.88
64889;BME280;51386;53.082;8.816;2022-09-03T04:47:55;101502.66;;;20.80;39.72
64889;BME280;51386;53.082;8.816;2022-09-03T04:50:22;101507.78;;;20.81;39.30
64889;BME280;51386;53.082;8.816;2022-09-03T04:52:49;101506.72;;;20.82;39.69
64889;BME280;51386;53.082;8.816;2022-09-03T04:55:17;101505.69;;;20.83;39.35
64889;BME280;51386;53.082;8.816;2022-09-03T04:57:45;101505.69;;;20.83;39.26
64889;BME280;51386;53.082;8.816;2022-09-03T05:00:14;101511.88;;;20.84;39.69
64889;BME280;51386;53.082;8.816;2022-09-03T05:02:45;101506.09;;;20.87;39.39
64889;BME280;51386;53.082;8.816;2022-09-03T05:05:15;101509.34;;;20.89;39.30
64889;BME280;51386;53.082;8.816;2022-09-03T05:07:42;101507.69;;;20.88;39.64
64889;BME280;51386;53.082;8.816;2022-09-03T05:10:12;101509.34;;;20.89;39.03
64889;BME280;51386;53.082;8.816;2022-09-03T05:12:47;101513.06;;;20.88;39.38
64889;BME280;51386;53.082;8.816;2022-09-03T05:15:17;101512.22;;;20.87;39.48
64889;BME280;51386;53.082;8.816;2022-09-03T05:17:44;101510.38;;;20.88;39.67
64889;BME280;51386;53.082;8.816;2022-09-03T05:20:12;101514.69;;;20.89;39.77
64889;BME280;51386;53.082;8.816;2022-09-03T05:22:40;101513.44;;;20.91;39.47
64889;BME280;51386;53.082;8.816;2022-09-03T05:25:07;101514.63;;;20.96;39.09
64889;BME280;51386;53.082;8.816;2022-09-03T05:27:35;101510.69;;;20.98;39.63
64889;BME280;51386;53.082;8.816;2022-09-03T05:30:03;101511.25;;;21.00;39.40
64889;BME280;51386;53.082;8.816;2022-09-03T05:32:32;101505.91;;;21.00;39.09
64889;BME280;51386;53.082;8.816;2022-09-03T05:35:00;101508.81;;;20.99;38.96
64889;BME280;51386;53.082;8.816;2022-09-03T05:37:27;101512.91;;;21.01;38.92
64889;BME280;51386;53.082;8.816;2022-09-03T05:39:55;101515.59;;;21.01;39.17
64889;BME280;51386;53.082;8.816;2022-09-03T05:42:22;101506.50;;;21.02;39.45
64889;BME280;51386;53.082;8.816;2022-09-03T05:44:50;101502.41;;;21.00;39.12
64889;BME280;51386;53.082;8.816;2022-09-03T05:47:17;101502.66;;;20.98;39.08
64889;BME280;51386;53.082;8.816;2022-09-03T05:49:46;101501.00;;;20.97;39.02
64889;BME280;51386;53.082;8.816;2022-09-03T05:52:13;101509.84;;;20.98;39.11
64889;BME280;51386;53.082;8.816;2022-09-03T05:54:40;101514.19;;;20.99;39.55
64889;BME280;51386;53.082;8.816;2022-09-03T05:57:08;101516.63;;;21.00;39.41
64889;BME280;51386;53.082;8.816;2022-09-03T05:59:35;101509.63;;;20.99;39.03
64889;BME280;51386;53.082;8.816;2022-09-03T06:02:03;101512.91;;;21.01;39.16
64889;BME280;51386;53.082;8.816;2022-09-03T06:04:31;101510.00;;;21.03;39.23
64889;BME280;51386;53.082;8.816;2022-09-03T06:07:01;101512.03;;;21.07;39.05
64889;BME280;51386;53.082;8.816;2022-09-03T06:09:28;101514.63;;;21.14;39.37
64889;BME280;51386;53.082;8.816;2022-09-03T06:11:56;101511.88;;;21.20;39.20
64889;BME280;51386;53.082;8.816;2022-09-03T06:14:25;101519.44;;;21.23;39.46
64889;BME280;51386;53.082;8.816;2022-09-03T06:16:53;101520.66;;;21.27;39.16
64889;BME280;51386;53.082;8.816;2022-09-03T06:19:22;101520.56;;;21.34;38.90
64889;BME280;51386;53.082;8.816;2022-09-03T06:21:49;101521.53;;;21.39;38.60
64889;BME280;51386;53.082;8.816;2022-09-03T06:24:20;101519.78;;;21.45;38.54
64889;BME280;51386;53.082;8.816;2022-09-03T06:26:54;101520.16;;;21.48;38.85
64889;BME280;51386;53.082;8.816;2022-09-03T06:29:22;101515.59;;;21.49;38.42
64889;BME280;51386;53.082;8.816;2022-09-03T06:31:49;101518.06;;;21.50;38.37
64889;BME280;51386;53.082;8.816;2022-09-03T06:34:17;101515.75;;;21.54;38.97
64889;BME280;51386;53.082;8.816;2022-09-03T06:36:44;101516.25;;;21.63;38.97
64889;BME280;51386;53.082;8.816;2022-09-03T06:39:12;101515.34;;;21.69;38.41
64889;BME280;51386;53.082;8.816;2022-09-03T06:41:41;101511.50;;;21.76;38.72
64889;BME280;51386;53.082;8.816;2022-09-03T06:44:08;101511.41;;;21.83;38.63
64889;BME280;51386;53.082;8.816;2022-09-03T06:46:40;101515.41;;;21.92;37.88
64889;BME280;51386;53.082;8.816;2022-09-03T06:49:10;101513.44;;;21.99;38.03
64889;BME280;51386;53.082;8.816;2022-09-03T06:51:39;101512.78;;;22.03;37.76
64889;BME280;51386;53.082;8.816;2022-09-03T06:54:09;101520.25;;;22.13;37.73
64889;BME280;51386;53.082;8.816;2022-09-03T06:56:40;101514.41;;;22.16;37.66
64889;BME280;51386;53.082;8.816;2022-09-03T06:59:10;101509.53;;;22.24;37.64
64889;BME280;51386;53.082;8.816;2022-09-03T07:01:38;101516.31;;;22.39;37.47
64889;BME280;51386;53.082;8.816;2022-09-03T07:04:12;101520.84;;;22.50;37.20
64889;BME280;51386;53.082;8.816;2022-09-03T07:06:41;101512.00;;;22.61;36.94
64889;BME280;51386;53.082;8.816;2022-09-03T07:09:11;101513.63;;;22.73;36.72
64889;BME280;51386;53.082;8.816;2022-09-03T07:11:40;101514.19;;;22.87;36.17
64889;BME280;51386;53.082;8.816;2022-09-03T07:14:15;101515.97;;;23.21;36.09
64889;BME280;51386;53.082;8.816;2022-09-03T07:16:43;101515.59;;;23.69;35.48
64889;BME280;51386;53.082;8.816;2022-09-03T07:19:12;101516.59;;;24.30;34.63
64889;BME280;51386;53.082;8.816;2022-09-03T07:24:14;101511.50;;;25.48;33.26
64889;BME280;51386;53.082;8.816;2022-09-03T07:26:43;101506.44;;;26.15;32.01
64889;BME280;51386;53.082;8.816;2022-09-03T07:29:15;101512.72;;;26.67;31.03
64889;BME280;51386;53.082;8.816;2022-09-03T07:31:47;101504.25;;;27.01;29.62
64889;BME280;51386;53.082;8.816;2022-09-03T07:34:18;101504.56;;;27.04;29.94
64889;BME280;51386;53.082;8.816;2022-09-03T07:36:48;101504.25;;;27.01;30.06
64889;BME280;51386;53.082;8.816;2022-09-03T07:39:18;101505.19;;;27.31;29.50
64889;BME280;51386;53.082;8.816;2022-09-03T07:41:47;101501.28;;;27.99;28.80
64889;BME280;51386;53.082;8.816;2022-09-03T07:44:17;101501.09;;;28.90;28.07
64889;BME280;51386;53.082;8.816;2022-09-03T07:46:51;101502.22;;;29.82;26.73
64889;BME280;51386;53.082;8.816;2022-09-03T07:49:19;101506.22;;;30.52;24.87
64889;BME280;51386;53.082;8.816;2022-09-03T07:51:48;101500.22;;;31.02;24.63
64889;BME280;51386;53.082;8.816;2022-09-03T07:54:20;101493.91;;;31.44;24.53
64889;BME280;51386;53.082;8.816;2022-09-03T07:56:51;101495.44;;;31.69;24.07
64889;BME280;51386;53.082;8.816;2022-09-03T07:59:18;101500.13;;;32.14;23.70
64889;BME280;51386;53.082;8.816;2022-09-03T08:01:49;101501.56;;;32.71;22.96
64889;BME280;51386;53.082;8.816;2022-09-03T08:04:16;101504.25;;;33.48;21.85
64889;BME280;51386;53.082;8.816;2022-09-03T08:06:44;101508.00;;;33.96;20.82
64889;BME280;51386;53.082;8.816;2022-09-03T08:09:11;101508.94;;;34.44;20.80
64889;BME280;51386;53.082;8.816;2022-09-03T08:11:42;101518.78;;;34.85;20.32
64889;BME280;51386;53.082;8.816;2022-09-03T08:14:12;101515.25;;;35.01;20.13
64889;BME280;51386;53.082;8.816;2022-09-03T08:16:42;101506.78;;;35.20;19.97
64889;BME280;51386;53.082;8.816;2022-09-03T08:19:10;101510.00;;;35.48;19.94
64889;BME280;51386;53.082;8.816;2022-09-03T08:21:40;101500.34;;;35.67;18.85
64889;BME280;51386;53.082;8.816;2022-09-03T08:24:09;101504.66;;;35.85;18.92
64889;BME280;51386;53.082;8.816;2022-09-03T08:26:39;101504.38;;;35.87;19.09
64889;BME280;51386;53.082;8.816;2022-09-03T08:29:19;101508.88;;;35.74;19.41
64889;BME280;51386;53.082;8.816;2022-09-03T08:31:47;101507.53;;;36.15;18.69
64889;BME280;51386;53.082;8.816;2022-09-03T08:34:15;101518.53;;;36.61;18.52
64889;BME280;51386;53.082;8.816;2022-09-03T08:36:45;101507.78;;;37.06;18.04
64889;BME280;51386;53.082;8.816;2022-09-03T08:39:13;101514.41;;;37.25;16.74
64889;BME280;51386;53.082;8.816;2022-09-03T08:42:21;101512.34;;;37.22;17.16
64889;BME280;51386;53.082;8.816;2022-09-03T08:44:56;101515.84;;;37.52;16.76
64889;BME280;51386;53.082;8.816;2022-09-03T08:47:31;101512.66;;;37.83;16.77
64889;BME280;51386;53.082;8.816;2022-09-03T08:50:06;101514.19;;;38.37;16.27
64889;BME280;51386;53.082;8.816;2022-09-03T08:52:41;101503.41;;;38.56;16.14
64889;BME280;51386;53.082;8.816;2022-09-03T08:55:20;101498.94;;;38.88;15.79
64889;BME280;51386;53.082;8.816;2022-09-03T08:57:56;101502.69;;;39.20;15.30
64889;BME280;51386;53.082;8.816;2022-09-03T09:00:41;101516.56;;;39.51;15.30
64889;BME280;51386;53.082;8.816;2022-09-03T09:03:42;101508.88;;;39.84;14.83
64889;BME280;51386;53.082;8.816;2022-09-03T09:06:22;101504.25;;;39.88;14.90
64889;BME280;51386;53.082;8.816;2022-09-03T09:09:05;101498.44;;;40.06;14.56
64889;BME280;51386;53.082;8.816;2022-09-03T09:11:49;101496.03;;;40.35;14.72
64889;BME280;51386;53.082;8.816;2022-09-03T09:14:31;101505.63;;;40.73;14.33
64889;BME280;51386;53.082;8.816;2022-09-03T09:17:18;101504.22;;;40.63;13.72
64889;BME280;51386;53.082;8.816;2022-09-03T09:20:04;101497.00;;;40.12;14.38
64889;BME280;51386;53.082;8.816;2022-09-03T09:22:37;101498.81;;;39.92;14.74
64889;BME280;51386;53.082;8.816;2022-09-03T09:25:11;101510.81;;;39.56;14.71
64889;BME280;51386;53.082;8.816;2022-09-03T09:27:50;101500.97;;;39.55;14.35
64889;BME280;51386;53.082;8.816;2022-09-03T09:30:20;101497.97;;;39.60;14.48
64889;BME280;51386;53.082;8.816;2022-09-03T09:32:49;101501.25;;;39.94;14.31
64889;BME280;51386;53.082;8.816;2022-09-03T09:35:17;101481.25;;;40.12;14.47
64889;BME280;51386;53.082;8.816;2022-09-03T09:37:51;101480.81;;;40.26;14.68
64889;BME280;51386;53.082;8.816;2022-09-03T09:40:30;101482.22;;;40.67;14.03
64889;BME280;51386;53.082;8.816;2022-09-03T09:43:09;101483.13;;;41.25;13.86
64889;BME280;51386;53.082;8.816;2022-09-03T09:45:44;101484.56;;;41.18;12.94
64889;BME280;51386;53.082;8.816;2022-09-03T09:48:25;101477.81;;;40.81;12.88
64889;BME280;51386;53.082;8.816;2022-09-03T09:51:06;101485.09;;;40.89;12.99
64889;BME280;51386;53.082;8.816;2022-09-03T09:53:35;101475.75;;;41.13;13.01
64889;BME280;51386;53.082;8.816;2022-09-03T09:56:02;101476.38;;;41.41;13.25
64889;BME280;51386;53.082;8.816;2022-09-03T09:58:33;101478.94;;;41.72;12.64
64889;BME280;51386;53.082;8.816;2022-09-03T10:01:05;101464.59;;;41.86;12.38
64889;BME280;51386;53.082;8.816;2022-09-03T10:03:52;101472.59;;;41.91;12.62
64889;BME280;51386;53.082;8.816;2022-09-03T10:06:27;101472.16;;;42.12;12.07
64889;BME280;51386;53.082;8.816;2022-09-03T10:09:17;101459.25;;;42.45;12.46
64889;BME280;51386;53.082;8.816;2022-09-03T10:11:48;101463.09;;;42.64;12.14
64889;BME280;51386;53.082;8.816;2022-09-03T10:14:25;101459.94;;;42.91;11.88
64889;BME280;51386;53.082;8.816;2022-09-03T10:17:07;101454.91;;;42.71;11.76
64889;BME280;51386;53.082;8.816;2022-09-03T10:19:47;101461.44;;;42.33;11.90
64889;BME280;51386;53.082;8.816;2022-09-03T10:22:46;101461.00;;;42.31;11.65
64889;BME280;51386;53.082;8.816;2022-09-03T10:25:29;101467.16;;;42.70;11.12
64889;BME280;51386;53.082;8.816;2022-09-03T10:28:02;101459.81;;;42.55;11.21
64889;BME280;51386;53.082;8.816;2022-09-03T10:30:50;101450.41;;;42.63;11.31
64889;BME280;51386;53.082;8.816;2022-09-03T10:33:26;101453.50;;;42.31;11.55
64889;BME280;51386;53.082;8.816;2022-09-03T10:36:10;101449.78;;;41.17;12.61
64889;BME280;51386;53.082;8.816;2022-09-03T10:38:47;101443.91;;;40.65;12.36
64889;BME280;51386;53.082;8.816;2022-09-03T10:41:34;101444.88;;;39.51;12.97
64889;BME280;51386;53.082;8.816;2022-09-03T10:44:28;101438.59;;;38.59;14.21
64889;BME280;51386;53.082;8.816;2022-09-03T10:47:20;101441.84;;;37.26;15.06
64889;BME280;51386;53.082;8.816;2022-09-03T10:50:00;101439.19;;;36.39;15.29
64889;BME280;51386;53.082;8.816;2022-09-03T10:52:56;101435.38;;;35.68;16.41
64889;BME280;51386;53.082;8.816;2022-09-03T10:55:39;101438.59;;;35.70;16.48
64889;BME280;51386;53.082;8.816;2022-09-03T10:58:28;101430.97;;;35.84;15.90
64889;BME280;51386;53.082;8.816;2022-09-03T11:01:05;101448.78;;;35.44;16.73
64889;BME280;51386;53.082;8.816;2022-09-03T11:03:47;101436.84;;;35.05;16.50
64889;BME280;51386;53.082;8.816;2022-09-03T11:06:21;101436.00;;;34.88;16.81
64889;BME280;51386;53.082;8.816;2022-09-03T11:08:57;101429.88;;;34.91;17.24
64889;BME280;51386;53.082;8.816;2022-09-03T11:11:37;101431.38;;;35.05;17.22
64889;BME280;51386;53.082;8.816;2022-09-03T11:14:10;101433.94;;;35.36;16.96
64889;BME280;51386;53.082;8.816;2022-09-03T11:16:44;101424.91;;;35.44;16.52
64889;BME280;51386;53.082;8.816;2022-09-03T11:19:17;101425.72;;;35.36;16.79
64889;BME280;51386;53.082;8.816;2022-09-03T11:21:48;101417.34;;;35.41;16.85
64889;BME280;51386;53.082;8.816;2022-09-03T11:24:22;101423.34;;;35.52;16.98
64889;BME280;51386;53.082;8.816;2022-09-03T11:26:56;101419.75;;;35.60;16.49
64889;BME280;51386;53.082;8.816;2022-09-03T11:29:34;101414.94;;;36.12;16.25
64889;BME280;51386;53.082;8.816;2022-09-03T11:32:08;101422.16;;;35.61;16.30
64889;BME280;51386;53.082;8.816;2022-09-03T11:34:46;101398.84;;;35.29;16.51
64889;BME280;51386;53.082;8.816;2022-09-03T11:37:21;101411.72;;;35.03;17.08
64889;BME280;51386;53.082;8.816;2022-09-03T11:39:57;101404.56;;;34.59;17.26
64889;BME280;51386;53.082;8.816;2022-09-03T11:42:30;101404.25;;;34.22;17.36
64889;BME280;51386;53.082;8.816;2022-09-03T11:45:23;101407.63;;;33.88;18.04
64889;BME280;51386;53.082;8.816;2022-09-03T11:47:51;101404.47;;;33.64;17.83
64889;BME280;51386;53.082;8.816;2022-09-03T11:50:24;101406.41;;;33.50;18.49
64889;BME280;51386;53.082;8.816;2022-09-03T11:53:07;101402.06;;;33.26;18.59
64889;BME280;51386;53.082;8.816;2022-09-03T11:55:52;101400.34;;;33.08;19.05
64889;BME280;51386;53.082;8.816;2022-09-03T11:58:25;101405.59;;;32.91;18.67
64889;BME280;51386;53.082;8.816;2022-09-03T12:00:57;101396.16;;;32.75;19.40
64889;BME280;51386;53.082;8.816;2022-09-03T12:03:42;101396.59;;;32.55;18.89
64889;BME280;51386;53.082;8.816;2022-09-03T12:06:39;101387.91;;;32.26;19.23
64889;BME280;51386;53.082;8.816;2022-09-03T12:09:34;101397.38;;;32.01;20.12
64889;BME280;51386;53.082;8.816;2022-09-03T12:12:31;101385.53;;;31.78;20.30
64889;BME280;51386;53.082;8.816;2022-09-03T12:15:16;101391.66;;;31.70;20.56
64889;BME280;51386;53.082;8.816;2022-09-03T12:17:53;101400.66;;;31.33;20.02
64889;BME280;51386;53.082;8.816;2022-09-03T12:20:43;101391.91;;;31.04;20.46
64889;BME280;51386;53.082;8.816;2022-09-03T12:23:12;101395.78;;;30.98;21.12
64889;BME280;51386;53.082;8.816;2022-09-03T12:25:44;101387.47;;;30.90;20.73
64889;BME280;51386;53.082;8.816;2022-09-03T12:28:22;101383.84;;;30.75;21.56
64889;BME280;51386;53.082;8.816;2022-09-03T12:30:52;101390.88;;;30.76;21.18
64889;BME280;51386;53.082;8.816;2022-09-03T12:33:22;101379.28;;;30.71;20.94
64889;BME280;51386;53.082;8.816;2022-09-03T12:35:57;101382.94;;;30.61;21.55
64889;BME280;51386;53.082;8.816;2022-09-03T12:38:28;101378.59;;;30.60;21.46
64889;BME280;51386;53.082;8.816;2022-09-03T12:41:27;101377.66;;;30.70;21.20
64889;BME280;51386;53.082;8.816;2022-09-03T12:43:58;101387.00;;;30.83;21.37
64889;BME280;51386;53.082;8.816;2022-09-03T12:46:28;101382.78;;;30.95;21.24
64889;BME280;51386;53.082;8.816;2022-09-03T12:49:03;101366.78;;;31.07;21.33
64889;BME280;51386;53.082;8.816;2022-09-03T12:52:02;101374.53;;;31.19;21.40
64889;BME280;51386;53.082;8.816;2022-09-03T12:54:37;101378.41;;;31.13;21.25
64889;BME280;51386;53.082;8.816;2022-09-03T12:57:08;101358.78;;;31.16;21.22
64889;BME280;51386;53.082;8.816;2022-09-03T12:59:38;101369.59;;;31.21;20.66
64889;BME280;51386;53.082;8.816;2022-09-03T13:02:17;101375.03;;;31.21;21.42
64889;BME280;51386;53.082;8.816;2022-09-03T13:04:48;101369.81;;;31.06;21.49
64889;BME280;51386;53.082;8.816;2022-09-03T13:07:26;101371.00;;;31.00;21.54
64889;BME280;51386;53.082;8.816;2022-09-03T13:10:03;101376.47;;;31.00;21.27
64889;BME280;51386;53.082;8.816;2022-09-03T13:12:42;101367.38;;;30.86;21.61
64889;BME280;51386;53.082;8.816;2022-09-03T13:15:21;101358.47;;;30.61;21.21
64889;BME280;51386;53.082;8.816;2022-09-03T13:18:22;101359.31;;;30.38;21.79
64889;BME280;51386;53.082;8.816;2022-09-03T13:21:06;101355.38;;;30.49;21.66
64889;BME280;51386;53.082;8.816;2022-09-03T13:24:06;101345.53;;;30.53;22.05
64889;BME280;51386;53.082;8.816;2022-09-03T13:26:50;101345.84;;;30.70;22.17
64889;BME280;51386;53.082;8.816;2022-09-03T13:29:41;101353.63;;;30.77;21.32
64889;BME280;51386;53.082;8.816;2022-09-03T13:35:28;101348.63;;;30.65;21.16
64889;BME280;51386;53.082;8.816;2022-09-03T13:38:04;101356.28;;;30.63;21.74